createdAt,value
2019-02-28T00:00:40.640Z,18.07
2019-02-28T00:03:27.264Z,18.50
2019-02-28T00:06:12.941Z,18.10
2019-02-28T00:08:58.652Z,20.30
2019-02-28T00:11:44.044Z,20.13
2019-02-28T00:14:29.507Z,20.10
2019-02-28T00:17:14.848Z,18.97
2019-02-28T00:20:00.351Z,18.33
2019-02-28T00:22:48.434Z,19.27
2019-02-28T00:25:37.709Z,19.43
2019-02-28T00:28:23.158Z,20.03
2019-02-28T00:31:08.272Z,20.47
2019-02-28T00:33:54.420Z,21.53
2019-02-28T00:36:40.061Z,21.37
2019-02-28T00:39:25.388Z,21.00
2019-02-28T00:42:11.770Z,22.00
2019-02-28T00:44:57.517Z,21.67
2019-02-28T00:47:43.102Z,21.90
2019-02-28T00:50:28.722Z,23.03
2019-02-28T00:53:14.174Z,24.20
2019-02-28T00:55:59.848Z,23.00
2019-02-28T00:58:45.708Z,24.60
2019-02-28T01:01:31.268Z,24.37
2019-02-28T01:04:17.356Z,24.27
2019-02-28T01:07:02.925Z,26.47
2019-02-28T01:09:48.280Z,26.30
2019-02-28T01:12:35.405Z,25.30
2019-02-28T01:15:20.698Z,25.70
2019-02-28T01:18:06.184Z,24.70
2019-02-28T01:20:51.925Z,24.07
2019-02-28T01:23:37.480Z,25.53
2019-02-28T01:26:22.829Z,24.50
2019-02-28T01:29:08.475Z,26.57
2019-02-28T01:31:54.048Z,27.27
2019-02-28T01:34:40.096Z,25.40
2019-02-28T01:37:25.640Z,27.03
2019-02-28T01:40:11.411Z,27.60
2019-02-28T01:42:56.976Z,30.03
2019-02-28T01:45:45.188Z,28.70
2019-02-28T01:48:30.876Z,29.23
2019-02-28T01:51:16.268Z,28.87
2019-02-28T01:54:01.754Z,29.13
2019-02-28T01:56:47.216Z,29.83
2019-02-28T01:59:32.536Z,30.23
2019-02-28T02:02:18.304Z,29.37
2019-02-28T02:05:04.557Z,30.20
2019-02-28T02:07:51.332Z,29.27
2019-02-28T02:10:36.932Z,30.80
2019-02-28T02:13:22.201Z,31.73
2019-02-28T02:16:07.532Z,30.63
2019-02-28T02:18:52.920Z,30.67
2019-02-28T02:21:38.239Z,32.50
2019-02-28T02:24:27.974Z,30.93
2019-02-28T02:27:11.973Z,30.93
2019-02-28T02:29:57.237Z,29.20
2019-02-28T02:32:42.676Z,30.20
2019-02-28T02:35:28.266Z,30.77
2019-02-28T02:38:13.994Z,31.13
2019-02-28T02:41:01.032Z,29.83
2019-02-28T02:43:46.666Z,30.03
2019-02-28T02:46:32.125Z,31.57
2019-02-28T02:49:19.860Z,30.73
2019-02-28T02:52:05.088Z,30.13
2019-02-28T02:54:52.241Z,29.30
2019-02-28T02:57:38.154Z,28.27
2019-02-28T03:00:24.155Z,28.20
2019-02-28T03:03:09.464Z,29.27
2019-02-28T03:05:54.733Z,30.33
2019-02-28T03:08:40.450Z,28.87
2019-02-28T03:11:26.231Z,29.23
2019-02-28T03:14:16.350Z,28.27
2019-02-28T03:16:59.781Z,29.70
2019-02-28T03:19:45.183Z,28.30
2019-02-28T03:22:30.660Z,29.93
2019-02-28T03:25:16.262Z,29.17
2019-02-28T03:28:01.856Z,29.57
2019-02-28T03:30:47.677Z,29.80
2019-02-28T03:33:33.274Z,33.10
2019-02-28T03:36:19.180Z,28.27
2019-02-28T03:39:05.816Z,30.60
2019-02-28T03:41:52.916Z,29.87
2019-02-28T03:44:39.330Z,31.13
2019-02-28T03:47:25.213Z,31.97
2019-02-28T03:50:10.852Z,33.93
2019-02-28T03:52:56.375Z,32.20
2019-02-28T03:55:41.792Z,32.77
2019-02-28T03:58:27.573Z,32.97
2019-02-28T04:01:13.393Z,35.50
2019-02-28T04:03:58.705Z,33.30
2019-02-28T04:06:44.397Z,35.30
2019-02-28T04:09:29.845Z,33.47
2019-02-28T04:12:15.328Z,33.83
2019-02-28T04:15:00.939Z,33.00
2019-02-28T04:17:46.736Z,35.30
2019-02-28T04:20:37.583Z,35.87
2019-02-28T04:23:20.302Z,35.13
2019-02-28T04:26:05.919Z,37.97
2019-02-28T04:28:54.722Z,36.70
2019-02-28T04:31:39.022Z,33.23
2019-02-28T04:34:24.456Z,35.77
2019-02-28T04:37:10.075Z,36.30
2019-02-28T04:39:55.606Z,35.90
2019-02-28T04:42:41.370Z,35.37
2019-02-28T04:45:27.071Z,37.53
2019-02-28T04:48:14.024Z,37.17
2019-02-28T04:51:02.262Z,38.10
2019-02-28T04:53:52.783Z,37.07
2019-02-28T04:56:35.452Z,41.07
2019-02-28T04:59:21.130Z,39.90
2019-02-28T05:02:06.548Z,39.60
2019-02-28T05:04:52.713Z,39.77
2019-02-28T05:07:38.204Z,41.23
2019-02-28T05:10:23.610Z,39.73
2019-02-28T05:13:11.461Z,38.43
2019-02-28T05:15:56.566Z,40.77
2019-02-28T05:18:42.015Z,38.60
2019-02-28T05:21:28.054Z,39.23
2019-02-28T05:24:13.633Z,39.80
2019-02-28T05:27:00.334Z,42.67
2019-02-28T05:29:47.044Z,40.07
2019-02-28T05:32:35.648Z,40.53
2019-02-28T05:35:25.547Z,42.37
2019-02-28T05:38:07.654Z,41.33
2019-02-28T05:40:55.458Z,41.57
2019-02-28T05:43:41.610Z,41.33
2019-02-28T05:46:26.997Z,41.63
2019-02-28T05:49:12.934Z,41.57
2019-02-28T05:51:59.767Z,41.80
2019-02-28T05:54:47.358Z,43.50
2019-02-28T05:57:33.062Z,45.17
2019-02-28T06:00:20.231Z,47.10
2019-02-28T06:03:05.820Z,44.10
2019-02-28T06:05:51.491Z,45.27
2019-02-28T06:08:39.141Z,44.60
2019-02-28T06:11:24.578Z,45.60
2019-02-28T06:14:10.230Z,43.47
2019-02-28T06:16:55.777Z,43.20
2019-02-28T06:19:43.567Z,44.20
2019-02-28T06:22:31.079Z,45.50
2019-02-28T06:25:23.856Z,45.30
2019-02-28T06:28:03.876Z,43.60
2019-02-28T06:30:49.378Z,50.77
2019-02-28T06:33:35.382Z,46.97
2019-02-28T06:36:20.666Z,47.03
2019-02-28T06:39:07.023Z,47.17
2019-02-28T06:41:52.326Z,49.90
2019-02-28T06:44:37.736Z,48.70
2019-02-28T06:47:23.398Z,49.13
2019-02-28T06:50:12.954Z,46.57
2019-02-28T06:52:59.318Z,47.00
2019-02-28T06:55:48.702Z,47.20
2019-02-28T06:58:34.068Z,47.40
2019-02-28T07:01:22.645Z,49.87
2019-02-28T07:04:06.851Z,48.83
2019-02-28T07:06:52.426Z,46.77
2019-02-28T07:09:38.024Z,48.87
2019-02-28T07:12:29.158Z,51.47
2019-02-28T07:15:11.339Z,50.30
2019-02-28T07:17:56.588Z,49.50
2019-02-28T07:20:41.987Z,50.37
2019-02-28T07:23:30.076Z,48.27
2019-02-28T07:26:14.972Z,47.87
2019-02-28T07:29:00.664Z,46.30
2019-02-28T07:31:45.970Z,44.40
2019-02-28T07:34:31.429Z,45.70
2019-02-28T07:37:19.018Z,45.77
2019-02-28T07:40:05.133Z,42.87
2019-02-28T07:42:50.426Z,46.03
2019-02-28T07:45:36.147Z,43.43
2019-02-28T07:48:26.508Z,43.70
2019-02-28T07:51:09.311Z,43.53
2019-02-28T07:53:54.923Z,42.27
2019-02-28T07:56:43.118Z,45.50
2019-02-28T07:59:28.048Z,45.63
2019-02-28T08:02:13.685Z,44.50
2019-02-28T08:04:59.425Z,44.73
2019-02-28T08:07:50.490Z,45.20
2019-02-28T08:10:33.157Z,44.90
2019-02-28T08:13:19.213Z,45.37
2019-02-28T08:16:04.551Z,44.43
2019-02-28T08:18:51.276Z,43.77
2019-02-28T08:21:43.979Z,46.23
2019-02-28T08:24:26.585Z,46.50
2019-02-28T08:27:12.541Z,47.70
2019-02-28T08:29:57.951Z,47.73
2019-02-28T08:32:46.046Z,47.73
2019-02-28T08:35:34.875Z,45.27
2019-02-28T08:38:18.079Z,50.60
2019-02-28T08:41:03.639Z,48.80
2019-02-28T08:43:49.291Z,48.10
2019-02-28T08:46:34.699Z,49.87
2019-02-28T08:49:20.335Z,46.23
2019-02-28T08:52:07.968Z,49.13
2019-02-28T08:54:53.514Z,50.80
2019-02-28T08:57:42.054Z,50.90
2019-02-28T09:00:31.700Z,54.70
2019-02-28T09:03:15.166Z,50.93
2019-02-28T09:06:03.831Z,53.57
2019-02-28T09:08:48.750Z,53.93
2019-02-28T09:11:34.083Z,53.07
2019-02-28T09:14:19.747Z,52.10
2019-02-28T09:17:05.339Z,52.00
2019-02-28T09:19:50.659Z,51.37
2019-02-28T09:22:36.116Z,51.20
2019-02-28T09:25:22.759Z,54.00
2019-02-28T09:28:10.203Z,51.33
2019-02-28T09:30:56.390Z,51.23
2019-02-28T09:33:41.923Z,54.10
2019-02-28T09:36:27.675Z,56.33
2019-02-28T09:39:16.387Z,56.00
2019-02-28T09:42:00.746Z,55.27
2019-02-28T09:44:46.492Z,54.93
2019-02-28T09:47:32.487Z,55.43
2019-02-28T09:50:19.358Z,54.67
2019-02-28T09:53:06.090Z,55.23
2019-02-28T09:55:51.692Z,55.03
2019-02-28T09:58:37.036Z,51.40
2019-02-28T10:01:24.409Z,57.43
2019-02-28T10:04:10.423Z,55.47
2019-02-28T10:06:56.868Z,52.37
2019-02-28T10:09:44.204Z,54.90
2019-02-28T10:12:30.464Z,57.13
2019-02-28T10:15:17.481Z,55.27
2019-02-28T10:18:04.450Z,53.27
2019-02-28T10:20:50.560Z,55.33
2019-02-28T10:23:35.969Z,56.53
2019-02-28T10:26:21.916Z,53.03
2019-02-28T10:29:08.143Z,52.87
2019-02-28T10:31:54.031Z,54.63
2019-02-28T10:34:39.684Z,52.77
2019-02-28T10:37:25.112Z,58.77
2019-02-28T10:40:14.261Z,51.57
2019-02-28T10:43:00.838Z,53.80
2019-02-28T10:45:46.225Z,53.97
2019-02-28T10:48:32.096Z,52.93
2019-02-28T10:51:17.426Z,53.53
2019-02-28T10:54:03.331Z,52.67
2019-02-28T10:56:48.856Z,52.50
2019-02-28T10:59:34.288Z,53.90
2019-02-28T11:02:20.065Z,52.37
2019-02-28T11:05:07.970Z,51.13
2019-02-28T11:07:53.650Z,54.33
2019-02-28T11:10:43.052Z,55.23
2019-02-28T11:13:28.567Z,52.67
2019-02-28T11:16:15.684Z,51.97
2019-02-28T11:19:01.164Z,53.13
2019-02-28T11:21:47.072Z,53.03
2019-02-28T11:24:32.688Z,53.67
2019-02-28T11:27:19.722Z,53.00
2019-02-28T11:30:07.440Z,60.70
2019-02-28T11:32:54.152Z,54.37
2019-02-28T11:35:39.791Z,55.73
2019-02-28T11:38:25.596Z,56.57
2019-02-28T11:41:11.380Z,54.37
2019-02-28T11:43:57.241Z,52.63
2019-02-28T11:46:43.780Z,52.93
2019-02-28T11:49:30.148Z,52.43
2019-02-28T11:52:16.081Z,52.60
2019-02-28T11:55:01.653Z,53.13
2019-02-28T11:57:47.408Z,52.07
2019-02-28T12:00:35.667Z,50.80
2019-02-28T12:03:20.060Z,53.13
2019-02-28T12:06:06.859Z,50.87
2019-02-28T12:08:54.400Z,55.97
2019-02-28T12:11:39.808Z,55.40
2019-02-28T12:14:26.488Z,52.67
2019-02-28T12:17:15.020Z,51.23
2019-02-28T12:20:03.867Z,57.50
2019-02-28T12:22:50.847Z,53.13
2019-02-28T12:25:39.527Z,53.10
2019-02-28T12:28:24.981Z,55.23
2019-02-28T12:31:11.318Z,52.47
2019-02-28T12:33:57.717Z,52.57
2019-02-28T12:36:46.335Z,51.93
2019-02-28T12:39:33.339Z,50.47
2019-02-28T12:42:19.362Z,51.20
2019-02-28T12:45:08.374Z,53.37
2019-02-28T12:47:54.401Z,53.43
2019-02-28T12:50:40.437Z,52.93
2019-02-28T12:53:26.600Z,57.57
2019-02-28T12:56:14.226Z,53.20
2019-02-28T12:59:00.417Z,52.70
2019-02-28T13:01:46.516Z,52.67
2019-02-28T13:04:32.547Z,54.40
2019-02-28T13:07:20.789Z,49.83
2019-02-28T13:10:08.871Z,50.30
2019-02-28T13:13:05.608Z,49.97
2019-02-28T13:15:46.604Z,50.47
2019-02-28T13:18:32.898Z,41.20
2019-02-28T13:21:18.668Z,41.83
2019-02-28T13:24:06.087Z,40.57
2019-02-28T13:26:52.584Z,39.57
2019-02-28T13:29:38.875Z,41.10
2019-02-28T13:32:28.335Z,39.23
2019-02-28T13:35:15.677Z,40.00
2019-02-28T13:38:02.802Z,41.40
2019-02-28T13:40:48.797Z,39.93
2019-02-28T13:43:34.713Z,39.47
2019-02-28T13:46:21.003Z,38.00
2019-02-28T13:49:08.434Z,40.23
2019-02-28T13:51:54.339Z,36.73
2019-02-28T13:54:42.097Z,40.77
2019-02-28T13:57:31.251Z,40.40
2019-02-28T14:00:21.862Z,40.50
2019-02-28T14:03:09.475Z,43.03
2019-02-28T14:05:56.143Z,37.30
2019-02-28T14:08:42.131Z,39.50
2019-02-28T14:11:30.213Z,40.50
2019-02-28T14:14:15.920Z,43.70
2019-02-28T14:17:02.033Z,43.63
2019-02-28T14:19:48.330Z,40.10
2019-02-28T14:22:33.993Z,40.47
2019-02-28T14:25:21.009Z,41.07
2019-02-28T14:28:07.377Z,43.30
2019-02-28T14:30:54.405Z,41.43
2019-02-28T14:33:41.826Z,44.37
2019-02-28T14:36:28.388Z,47.63
2019-02-28T14:39:14.560Z,47.33
2019-02-28T14:42:03.148Z,45.23
2019-02-28T14:44:47.795Z,44.83
2019-02-28T14:47:36.258Z,46.57
2019-02-28T14:50:22.703Z,50.80
2019-02-28T14:53:13.129Z,46.80
2019-02-28T14:55:56.211Z,49.07
2019-02-28T14:58:42.326Z,46.00
2019-02-28T15:01:28.348Z,48.60
2019-02-28T15:04:14.368Z,45.70
2019-02-28T15:07:03.035Z,45.73
2019-02-28T15:09:48.410Z,50.47
2019-02-28T15:12:34.220Z,48.07
2019-02-28T15:15:20.284Z,52.93
2019-02-28T15:18:06.095Z,50.70
2019-02-28T15:20:51.915Z,54.80
2019-02-28T15:23:37.695Z,55.17
2019-02-28T15:26:26.537Z,57.43
2019-02-28T15:29:11.873Z,57.63
2019-02-28T15:31:57.948Z,57.73
2019-02-28T15:34:43.749Z,55.17
2019-02-28T15:37:30.359Z,55.83
2019-02-28T15:40:24.721Z,56.03
2019-02-28T15:43:16.957Z,56.70
2019-02-28T15:45:59.969Z,55.23
2019-02-28T15:48:46.292Z,58.60
2019-02-28T15:51:33.016Z,58.30
2019-02-28T15:54:21.623Z,54.17
2019-02-28T15:57:06.654Z,55.50
2019-02-28T15:59:52.756Z,54.83
2019-02-28T16:02:42.168Z,55.87
2019-02-28T16:05:27.312Z,54.93
2019-02-28T16:08:13.593Z,53.53
2019-02-28T16:10:59.725Z,56.73
2019-02-28T16:13:45.499Z,54.27
2019-02-28T16:16:32.160Z,55.93
2019-02-28T16:19:18.787Z,59.53
2019-02-28T16:22:06.139Z,61.10
2019-02-28T16:24:52.342Z,58.60
2019-02-28T16:27:38.233Z,62.03
2019-02-28T16:30:24.133Z,66.03
2019-02-28T16:33:10.135Z,60.97
2019-02-28T16:35:56.295Z,61.50
2019-02-28T16:38:42.479Z,61.87
2019-02-28T16:41:30.013Z,59.67
2019-02-28T16:44:16.377Z,64.90
2019-02-28T16:47:02.481Z,59.50
2019-02-28T16:49:48.385Z,59.43
2019-02-28T16:52:37.336Z,55.37
2019-02-28T16:55:22.697Z,54.00
2019-02-28T16:58:08.569Z,50.10
2019-02-28T17:00:54.824Z,47.63
2019-02-28T17:03:41.743Z,47.27
2019-02-28T17:06:28.493Z,47.70
2019-02-28T17:09:18.856Z,45.73
2019-02-28T17:12:23.683Z,44.97
2019-02-28T17:15:26.397Z,44.43
2019-02-28T17:18:18.398Z,44.63
2019-02-28T17:21:03.391Z,39.10
2019-02-28T17:23:49.133Z,40.07
2019-02-28T17:27:06.369Z,40.37
2019-02-28T17:30:10.900Z,42.87
2019-02-28T17:32:56.900Z,42.60
2019-02-28T17:35:43.141Z,42.13
2019-02-28T17:38:28.741Z,43.27
2019-02-28T17:41:14.833Z,42.63
2019-02-28T17:44:38.618Z,42.23
2019-02-28T17:47:52.396Z,43.80
2019-02-28T17:51:18.850Z,44.33
2019-02-28T17:54:29.372Z,47.10
2019-02-28T17:57:48.813Z,45.30
2019-02-28T18:01:17.236Z,47.33
2019-02-28T18:04:45.829Z,47.03
2019-02-28T18:07:57.831Z,46.80
2019-02-28T18:11:21.017Z,44.30
2019-02-28T18:14:27.801Z,46.30
2019-02-28T18:17:55.533Z,47.60
2019-02-28T18:21:22.818Z,47.23
2019-02-28T18:24:38.034Z,46.57
2019-02-28T18:28:00.405Z,48.00
2019-02-28T18:31:06.126Z,47.67
2019-02-28T18:34:09.005Z,45.77
2019-02-28T18:36:54.592Z,46.27
2019-02-28T18:39:40.758Z,46.47
2019-02-28T18:42:26.943Z,45.20
2019-02-28T18:45:15.593Z,42.57
2019-02-28T18:48:02.707Z,41.10
2019-02-28T18:50:48.485Z,36.50
2019-02-28T18:53:34.341Z,35.77
2019-02-28T18:56:20.485Z,34.90
2019-02-28T18:59:06.262Z,36.13
2019-02-28T19:01:52.385Z,34.77
2019-02-28T19:04:39.313Z,33.97
2019-02-28T19:07:25.202Z,32.17
2019-02-28T19:10:11.229Z,31.80
2019-02-28T19:12:57.006Z,32.40
2019-02-28T19:15:42.733Z,30.10
2019-02-28T19:18:29.706Z,29.07
2019-02-28T19:21:15.666Z,30.13
2019-02-28T19:24:02.726Z,28.73
2019-02-28T19:26:48.921Z,27.33
2019-02-28T19:29:34.562Z,26.40
2019-02-28T19:32:20.531Z,23.73
2019-02-28T19:35:06.778Z,25.33
2019-02-28T19:37:52.551Z,24.67
2019-02-28T19:40:38.442Z,23.77
2019-02-28T19:43:24.737Z,24.83
2019-02-28T19:46:11.486Z,22.77
2019-02-28T19:48:58.866Z,22.93
2019-02-28T19:51:45.094Z,24.13
2019-02-28T19:54:30.856Z,23.37
2019-02-28T19:57:18.787Z,20.83
2019-02-28T20:00:06.068Z,20.93
2019-02-28T20:02:52.070Z,20.50
2019-02-28T20:05:38.225Z,19.40
2019-02-28T20:08:24.472Z,18.80
2019-02-28T20:11:10.474Z,19.87
2019-02-28T20:13:56.207Z,18.33
2019-02-28T20:16:42.301Z,18.13
2019-02-28T20:19:27.982Z,18.87
2019-02-28T20:22:13.855Z,17.87
2019-02-28T20:25:00.286Z,16.97
2019-02-28T20:27:46.329Z,16.93
2019-02-28T20:30:32.509Z,17.40
2019-02-28T20:33:18.583Z,16.70
2019-02-28T20:36:04.194Z,16.17
2019-02-28T20:38:52.226Z,16.13
2019-02-28T20:41:38.209Z,16.77
2019-02-28T20:44:25.268Z,15.43
2019-02-28T20:47:11.567Z,15.70
2019-02-28T20:49:57.690Z,15.53
2019-02-28T20:52:43.946Z,17.10
2019-02-28T20:55:31.785Z,15.93
2019-02-28T20:58:17.945Z,15.53
2019-02-28T21:01:04.050Z,16.23
2019-02-28T21:03:49.932Z,16.17
2019-02-28T21:06:36.257Z,17.00
2019-02-28T21:09:22.609Z,17.70
2019-02-28T21:12:08.621Z,16.10
2019-02-28T21:14:54.513Z,16.60
2019-02-28T21:17:40.501Z,18.03
2019-02-28T21:20:27.150Z,17.63
2019-02-28T21:23:13.963Z,19.67
2019-02-28T21:26:00.963Z,20.20
2019-02-28T21:28:46.682Z,19.40
2019-02-28T21:31:33.475Z,19.97
2019-02-28T21:34:19.380Z,21.93
2019-02-28T21:37:05.637Z,19.20
2019-02-28T21:39:51.991Z,21.53
2019-02-28T21:42:37.797Z,21.03
2019-02-28T21:45:23.610Z,21.00
2019-02-28T21:48:09.702Z,21.77
2019-02-28T21:50:55.535Z,21.57
2019-02-28T21:53:41.443Z,21.60
2019-02-28T21:56:27.641Z,20.80
2019-02-28T21:59:13.719Z,21.20
2019-02-28T22:01:59.658Z,20.37
2019-02-28T22:04:45.730Z,20.73
2019-02-28T22:07:31.603Z,20.30
2019-02-28T22:10:17.498Z,22.00
2019-02-28T22:13:03.595Z,23.33
2019-02-28T22:15:49.471Z,22.27
2019-02-28T22:18:35.379Z,23.83
2019-02-28T22:21:21.764Z,22.33
2019-02-28T22:24:07.716Z,23.27
2019-02-28T22:26:53.615Z,24.57
2019-02-28T22:29:39.719Z,25.57
2019-02-28T22:32:41.015Z,26.77
2019-02-28T22:35:36.372Z,26.00
2019-02-28T22:38:22.271Z,25.83
2019-02-28T22:41:08.059Z,29.00
2019-02-28T22:43:54.315Z,28.17
2019-02-28T22:46:40.103Z,27.23
2019-02-28T22:49:26.368Z,25.73
2019-02-28T22:52:12.606Z,27.90
2019-02-28T22:54:58.611Z,28.23
2019-02-28T22:57:44.423Z,25.70
2019-02-28T23:00:46.011Z,28.03
2019-02-28T23:03:32.324Z,28.33
2019-02-28T23:06:19.594Z,27.73
2019-02-28T23:09:06.575Z,28.10
2019-02-28T23:11:52.611Z,30.43
2019-02-28T23:14:38.615Z,31.80
2019-02-28T23:17:24.863Z,30.97
2019-02-28T23:20:10.705Z,33.43
2019-02-28T23:22:57.077Z,34.03
2019-02-28T23:25:42.944Z,33.17
2019-02-28T23:28:33.727Z,35.07
2019-02-28T23:31:59.668Z,34.13
2019-02-28T23:34:48.750Z,35.40
2019-02-28T23:37:34.432Z,38.20
2019-02-28T23:40:20.644Z,37.40
2019-02-28T23:43:06.347Z,35.93
2019-02-28T23:45:52.297Z,35.67
2019-02-28T23:48:38.289Z,37.53
2019-02-28T23:51:23.949Z,35.53
2019-02-28T23:54:12.027Z,38.07
2019-02-28T23:56:58.307Z,36.63
2019-02-28T23:59:44.195Z,38.40
